Time;durP1;ratioP1;P1;durP2;ratioP2;P2;SDS_P1;SDS_P2;PMS_P1;PMS_P2;Temp;Humidity;BMP_temperature;BMP_pressure;BME280_temperature;BME280_humidity;BME280_pressure;Samples;Min_cycle;Max_cycle;Signal;HPM_P1;HPM_P2
2020/12/25 00:02:01;;;;;;;2.55;0.90;;;4.50;99.90;;;;;;5070157;28;20225;-80
2020/12/25 00:04:29;;;;;;;2.95;1.25;;;4.50;99.90;;;;;;5066055;28;20203;-80
2020/12/25 00:06:55;;;;;;;2.00;0.73;;;4.80;99.90;;;;;;5055104;28;20206;-80
2020/12/25 00:09:22;;;;;;;2.45;1.05;;;4.80;99.90;;;;;;5056314;28;20606;-80
2020/12/25 00:11:49;;;;;;;2.65;0.80;;;4.60;99.90;;;;;;5071398;28;20218;-80
2020/12/25 00:14:15;;;;;;;3.72;1.30;;;4.60;99.90;;;;;;5066373;28;20217;-80
2020/12/25 00:16:42;;;;;;;2.50;1.00;;;4.70;99.90;;;;;;5067814;28;20671;-80
2020/12/25 00:19:08;;;;;;;2.25;1.00;;;4.70;99.90;;;;;;5068244;28;20240;-80
2020/12/25 00:21:37;;;;;;;2.20;1.00;;;4.70;99.90;;;;;;5073512;28;20237;-80
2020/12/25 00:24:03;;;;;;;4.57;1.40;;;4.70;99.90;;;;;;5060696;28;20568;-81
2020/12/25 00:26:32;;;;;;;2.10;0.80;;;4.80;99.90;;;;;;5074263;28;20246;-81
2020/12/25 00:28:59;;;;;;;1.90;0.60;;;4.70;99.90;;;;;;5068288;28;20198;-81
2020/12/25 00:31:28;;;;;;;2.10;0.70;;;4.80;99.90;;;;;;5081704;28;20359;-81
2020/12/25 00:33:55;;;;;;;2.08;0.75;;;4.90;99.90;;;;;;5069191;28;20647;-81
2020/12/25 00:36:26;;;;;;;2.10;0.70;;;5.00;99.90;;;;;;5062263;28;20210;-81
2020/12/25 00:38:54;;;;;;;1.90;0.60;;;4.90;99.90;;;;;;5081690;28;20244;-81
2020/12/25 00:41:20;;;;;;;2.20;0.70;;;4.90;99.90;;;;;;5080039;28;20248;-81
2020/12/25 00:43:47;;;;;;;2.10;0.63;;;4.80;99.90;;;;;;5069073;28;20206;-81
2020/12/25 00:46:14;;;;;;;2.20;0.80;;;5.10;99.90;;;;;;5075744;28;20213;-81
2020/12/25 00:48:41;;;;;;;1.95;0.60;;;4.80;99.90;;;;;;5076833;28;20205;-81
2020/12/25 00:51:12;;;;;;;2.25;0.82;;;4.80;99.90;;;;;;5062093;28;20223;-81
2020/12/25 00:53:39;;;;;;;2.10;0.75;;;4.90;99.90;;;;;;5057836;28;20203;-81
2020/12/25 00:56:07;;;;;;;2.20;0.80;;;4.80;99.90;;;;;;5059955;28;20225;-81
2020/12/25 00:58:33;;;;;;;2.17;0.80;;;4.90;99.90;;;;;;5053445;28;20264;-81
2020/12/25 01:01:00;;;;;;;3.75;0.98;;;5.00;99.90;;;;;;5065115;28;20217;-81
2020/12/25 01:03:26;;;;;;;2.40;1.00;;;4.90;99.90;;;;;;5069347;28;20198;-81
2020/12/25 01:05:53;;;;;;;2.65;1.00;;;5.00;99.90;;;;;;5065481;28;20198;-81
2020/12/25 01:08:20;;;;;;;2.20;0.88;;;5.10;99.90;;;;;;5069078;28;20202;-81
2020/12/25 01:10:59;;;;;;;2.25;1.00;;;5.00;99.90;;;;;;5069090;28;20222;-81
2020/12/25 01:13:26;;;;;;;2.95;1.10;;;5.10;99.90;;;;;;5083716;28;20277;-81
2020/12/25 01:15:53;;;;;;;3.45;2.10;;;5.00;99.90;;;;;;5084901;28;20301;-81
2020/12/25 01:18:19;;;;;;;2.30;1.00;;;4.70;99.90;;;;;;5084745;28;20221;-81
2020/12/25 01:20:46;;;;;;;2.40;1.00;;;4.90;99.90;;;;;;5085983;28;20233;-81
2020/12/25 01:23:12;;;;;;;2.65;1.35;;;4.80;99.90;;;;;;5093395;22;20260;-82
2020/12/25 01:25:39;;;;;;;2.63;1.45;;;4.80;99.90;;;;;;5080942;28;20202;-83
2020/12/25 01:28:05;;;;;;;6.03;1.17;;;4.80;99.90;;;;;;5084597;28;20202;-84
2020/12/25 01:30:33;;;;;;;4.07;1.70;;;4.90;99.90;;;;;;5079079;28;20190;-84
2020/12/25 01:32:59;;;;;;;3.42;1.63;;;4.90;99.90;;;;;;5078517;28;20218;-84
2020/12/25 01:35:26;;;;;;;3.33;1.88;;;4.90;99.90;;;;;;5071269;28;20203;-83
2020/12/25 01:37:52;;;;;;;3.00;1.50;;;4.70;99.90;;;;;;5058531;28;20203;-84
2020/12/25 01:40:19;;;;;;;2.70;1.20;;;4.90;99.90;;;;;;5051008;28;20732;-82
2020/12/25 01:42:46;;;;;;;2.65;1.20;;;5.00;99.90;;;;;;5059395;28;20226;-84
2020/12/25 01:45:12;;;;;;;2.80;1.40;;;5.40;99.90;;;;;;5068603;28;20206;-83
2020/12/25 01:47:40;;;;;;;3.25;1.58;;;5.00;99.90;;;;;;5079355;28;20213;-83
2020/12/25 01:50:08;;;;;;;2.78;1.35;;;5.20;99.90;;;;;;5080942;28;20628;-84
2020/12/25 01:52:37;;;;;;;3.10;1.55;;;5.30;99.90;;;;;;5069805;28;20207;-84
2020/12/25 01:55:05;;;;;;;3.50;1.92;;;5.20;99.90;;;;;;5070046;28;20205;-84
2020/12/25 01:57:32;;;;;;;3.42;1.77;;;4.90;99.90;;;;;;5074803;28;20233;-84
2020/12/25 01:59:59;;;;;;;3.92;2.20;;;5.00;99.90;;;;;;5077626;28;20214;-82
2020/12/25 02:02:26;;;;;;;3.72;1.83;;;5.10;99.90;;;;;;5063878;28;20607;-84
2020/12/25 02:04:53;;;;;;;4.10;2.78;;;5.30;99.90;;;;;;5060664;28;20213;-83
2020/12/25 02:07:20;;;;;;;4.70;2.50;;;5.20;99.90;;;;;;5060360;28;20194;-83
2020/12/25 02:09:46;;;;;;;4.18;2.35;;;5.30;99.90;;;;;;5060843;28;20739;-83
2020/12/25 02:12:13;;;;;;;3.65;2.05;;;5.30;99.90;;;;;;5075305;28;20270;-80
2020/12/25 02:14:40;;;;;;;4.97;2.25;;;5.30;99.90;;;;;;5065141;28;20218;-84
2020/12/25 02:17:07;;;;;;;3.88;2.55;;;5.50;99.90;;;;;;5081864;28;21002;-83
2020/12/25 02:19:37;;;;;;;4.60;2.35;;;5.40;99.90;;;;;;5071917;28;20606;-83
2020/12/25 02:22:04;;;;;;;4.55;2.60;;;5.40;99.90;;;;;;5080667;28;20205;-80
2020/12/25 02:24:31;;;;;;;4.28;2.85;;;5.10;99.90;;;;;;5080776;28;20234;-84
2020/12/25 02:26:58;;;;;;;5.10;3.00;;;5.40;99.90;;;;;;5068093;28;20199;-83
2020/12/25 02:29:24;;;;;;;5.10;3.00;;;5.40;99.90;;;;;;5058327;28;20198;-83
2020/12/25 02:31:51;;;;;;;4.60;2.72;;;5.30;99.90;;;;;;5058918;28;20687;-84
2020/12/25 02:34:17;;;;;;;6.20;3.53;;;5.20;99.90;;;;;;5062515;28;20222;-82
2020/12/25 02:36:44;;;;;;;5.32;3.45;;;5.10;99.90;;;;;;5075667;28;20225;-82
2020/12/25 02:39:11;;;;;;;5.38;3.45;;;5.20;99.90;;;;;;5065772;28;20228;-83
2020/12/25 02:41:38;;;;;;;4.75;3.33;;;5.10;99.90;;;;;;5074403;28;20206;-82
2020/12/25 02:44:04;;;;;;;5.85;3.55;;;5.30;99.90;;;;;;5083972;28;20224;-81
2020/12/25 02:46:31;;;;;;;5.75;3.58;;;5.20;99.90;;;;;;5093502;28;20194;-81
2020/12/25 02:48:57;;;;;;;6.13;3.58;;;5.40;99.90;;;;;;5074470;28;20206;-86
2020/12/25 02:51:24;;;;;;;4.47;3.40;;;5.20;99.90;;;;;;5061451;28;20207;-82
2020/12/25 02:53:50;;;;;;;8.27;3.55;;;5.40;99.90;;;;;;5081999;28;20223;-79
2020/12/25 02:56:19;;;;;;;5.90;3.80;;;5.40;99.90;;;;;;5074167;28;20210;-78
2020/12/25 02:58:46;;;;;;;7.05;3.70;;;5.30;99.90;;;;;;5071626;28;20199;-81
2020/12/25 03:01:14;;;;;;;5.90;2.90;;;5.50;99.90;;;;;;5071782;28;20648;-83
2020/12/25 03:03:41;;;;;;;6.57;4.40;;;5.40;99.90;;;;;;5069584;28;20222;-82
2020/12/25 03:06:08;;;;;;;4.95;3.58;;;5.40;99.90;;;;;;5067368;28;20690;-83
2020/12/25 03:08:35;;;;;;;6.10;3.65;;;5.30;99.90;;;;;;5074433;28;20264;-82
2020/12/25 03:11:01;;;;;;;5.40;3.80;;;5.30;99.90;;;;;;5082035;28;20201;-82
2020/12/25 03:13:29;;;;;;;4.65;3.00;;;5.30;99.90;;;;;;5073499;28;20218;-82
2020/12/25 03:15:56;;;;;;;5.20;3.80;;;5.40;99.90;;;;;;5055037;28;20580;-82
2020/12/25 03:18:22;;;;;;;5.50;3.88;;;5.40;99.90;;;;;;5078172;28;20689;-82
2020/12/25 03:20:49;;;;;;;5.60;3.45;;;5.30;99.90;;;;;;5079079;28;20231;-83
2020/12/25 03:23:15;;;;;;;8.75;3.92;;;5.60;99.90;;;;;;5069566;28;20225;-81
2020/12/25 03:25:42;;;;;;;6.97;3.88;;;5.30;99.90;;;;;;5087323;28;20237;-83
2020/12/25 03:28:08;;;;;;;8.45;4.68;;;5.30;99.90;;;;;;5085235;28;20201;-81
2020/12/25 03:30:36;;;;;;;6.28;4.22;;;5.40;99.90;;;;;;5073872;28;20194;-82
2020/12/25 03:33:02;;;;;;;7.15;4.10;;;5.30;99.90;;;;;;5086018;28;20232;-82
2020/12/25 03:35:29;;;;;;;6.18;4.10;;;5.40;99.90;;;;;;5084543;28;20289;-82
2020/12/25 03:37:56;;;;;;;5.95;3.90;;;5.20;99.90;;;;;;5080049;28;20198;-81
2020/12/25 03:40:22;;;;;;;6.05;4.05;;;5.30;99.90;;;;;;5083292;28;20214;-83
2020/12/25 03:42:49;;;;;;;4.85;3.30;;;5.50;99.90;;;;;;5084827;28;20317;-83
2020/12/25 03:45:16;;;;;;;5.20;3.35;;;5.20;99.90;;;;;;5073650;28;20560;-82
2020/12/25 03:47:43;;;;;;;5.13;3.67;;;5.40;99.90;;;;;;5069279;28;20232;-82
2020/12/25 03:50:10;;;;;;;6.55;3.60;;;5.50;99.90;;;;;;5080580;28;20252;-81
2020/12/25 03:52:37;;;;;;;10.32;4.00;;;5.30;99.90;;;;;;5068651;28;20199;-82
2020/12/25 03:55:03;;;;;;;5.80;3.85;;;5.40;99.90;;;;;;5069842;28;20676;-83
2020/12/25 03:57:30;;;;;;;5.93;3.55;;;5.60;99.90;;;;;;5087128;28;20257;-82
2020/12/25 03:59:57;;;;;;;7.03;4.13;;;5.50;99.90;;;;;;5084693;28;20225;-82
2020/12/25 04:02:23;;;;;;;5.57;4.00;;;5.60;99.90;;;;;;5080414;28;20613;-83
2020/12/25 04:04:50;;;;;;;5.75;3.50;;;5.80;99.90;;;;;;5068147;28;20236;-82
2020/12/25 04:07:17;;;;;;;5.45;3.50;;;5.80;99.90;;;;;;5087046;28;20206;-83
2020/12/25 04:09:44;;;;;;;4.85;3.25;;;5.60;99.90;;;;;;5079703;28;20286;-81
2020/12/25 04:12:10;;;;;;;6.45;3.78;;;5.60;99.90;;;;;;5079237;28;20857;-82
2020/12/25 04:14:37;;;;;;;8.60;4.10;;;5.80;99.90;;;;;;5078935;28;20293;-82
2020/12/25 04:17:03;;;;;;;5.65;3.97;;;5.70;99.90;;;;;;5079880;28;20221;-83
2020/12/25 04:19:32;;;;;;;5.85;4.03;;;5.90;99.90;;;;;;5066931;28;20231;-82
2020/12/25 04:21:59;;;;;;;7.50;3.70;;;5.60;99.90;;;;;;5090263;28;20277;-82
2020/12/25 04:24:26;;;;;;;6.03;4.00;;;5.40;99.90;;;;;;5079326;28;20285;-82
2020/12/25 04:26:53;;;;;;;5.78;4.00;;;5.40;99.90;;;;;;5074047;28;20201;-81
2020/12/25 04:29:19;;;;;;;5.25;3.63;;;5.40;99.90;;;;;;5082905;28;20247;-81
2020/12/25 04:31:46;;;;;;;8.38;4.18;;;5.50;99.90;;;;;;5070303;28;20205;-81
2020/12/25 04:34:13;;;;;;;5.35;3.45;;;5.50;99.90;;;;;;5067656;28;20223;-82
2020/12/25 04:36:39;;;;;;;4.75;3.28;;;5.70;99.90;;;;;;5065693;28;20317;-83
2020/12/25 04:39:07;;;;;;;5.45;3.47;;;5.70;99.90;;;;;;5046908;28;20257;-81
2020/12/25 04:41:34;;;;;;;6.30;3.75;;;5.50;99.90;;;;;;5084922;28;20190;-80
2020/12/25 04:44:03;;;;;;;7.03;3.60;;;5.60;99.90;;;;;;5073856;28;20249;-82
2020/12/25 04:46:30;;;;;;;5.78;3.95;;;5.50;99.90;;;;;;5063712;28;20648;-83
2020/12/25 04:48:56;;;;;;;4.93;3.00;;;5.50;99.90;;;;;;5070005;28;20232;-82
2020/12/25 04:51:23;;;;;;;5.07;3.28;;;5.60;99.90;;;;;;5079446;28;20209;-82
2020/12/25 04:53:51;;;;;;;6.07;3.50;;;5.50;99.90;;;;;;5080227;28;20228;-83
2020/12/25 04:56:20;;;;;;;5.40;3.33;;;5.60;99.90;;;;;;5077297;28;20726;-84
2020/12/25 04:58:46;;;;;;;4.90;2.95;;;5.70;99.90;;;;;;5078581;28;20209;-83
2020/12/25 05:01:13;;;;;;;4.30;2.85;;;5.50;99.90;;;;;;5064783;28;20478;-81
2020/12/25 05:03:41;;;;;;;5.25;3.50;;;5.40;99.90;;;;;;5063167;28;20258;-82
2020/12/25 05:06:10;;;;;;;4.63;3.10;;;5.60;99.90;;;;;;5079627;28;20214;-82
2020/12/25 05:08:40;;;;;;;4.80;3.42;;;5.40;99.90;;;;;;5080765;28;20206;-82
2020/12/25 05:11:09;;;;;;;4.45;2.88;;;5.40;99.90;;;;;;5061909;28;20203;-80
2020/12/25 05:13:43;;;;;;;5.28;3.20;;;5.40;99.90;;;;;;5064395;28;20222;-79
2020/12/25 05:16:11;;;;;;;5.55;3.70;;;5.50;99.90;;;;;;5064490;28;20222;-78
2020/12/25 05:18:41;;;;;;;5.05;3.30;;;5.30;99.90;;;;;;5060574;28;20218;-79
2020/12/25 05:21:10;;;;;;;5.80;3.90;;;5.40;99.90;;;;;;5058407;28;20321;-80
2020/12/25 05:23:38;;;;;;;5.63;3.35;;;5.50;99.90;;;;;;5078454;28;20252;-81
2020/12/25 05:26:06;;;;;;;4.75;3.40;;;5.30;99.90;;;;;;5078555;28;20202;-89
2020/12/25 05:28:38;;;;;;;5.35;3.47;;;5.30;99.90;;;;;;5071103;28;20203;-89
2020/12/25 05:31:06;;;;;;;5.40;3.08;;;5.50;99.90;;;;;;5058656;28;20639;-90
2020/12/25 05:33:33;;;;;;;5.18;3.85;;;5.30;99.90;;;;;;5059039;28;20223;-89
2020/12/25 05:36:05;;;;;;;5.30;3.70;;;5.50;99.90;;;;;;5062938;28;20198;-80
2020/12/25 05:38:32;;;;;;;5.93;3.65;;;5.30;99.90;;;;;;5077470;28;20208;-80
2020/12/25 05:41:01;;;;;;;5.68;3.42;;;5.60;99.90;;;;;;5075437;28;20226;-80
2020/12/25 05:43:28;;;;;;;5.15;3.47;;;5.30;99.90;;;;;;5067808;28;20222;-80
2020/12/25 05:45:55;;;;;;;5.40;3.58;;;5.50;99.90;;;;;;5061198;28;20641;-80
2020/12/25 05:48:22;;;;;;;5.20;3.65;;;5.50;99.90;;;;;;5061252;28;20305;-81
2020/12/25 05:50:48;;;;;;;5.03;3.22;;;5.40;99.90;;;;;;5066376;28;20199;-80
2020/12/25 05:53:15;;;;;;;4.85;3.70;;;5.30;99.90;;;;;;5057526;28;20242;-80
2020/12/25 05:55:42;;;;;;;6.10;3.70;;;5.30;99.90;;;;;;5057574;28;20206;-80
2020/12/25 05:58:12;;;;;;;6.20;4.65;;;5.40;99.90;;;;;;5058804;28;20210;-81
2020/12/25 06:00:40;;;;;;;6.18;4.53;;;5.30;99.90;;;;;;5057321;28;20727;-80
2020/12/25 06:03:11;;;;;;;5.80;4.47;;;5.50;99.90;;;;;;5057578;28;20253;-79
2020/12/25 06:05:40;;;;;;;6.80;4.50;;;5.40;99.90;;;;;;5059080;28;20211;-80
2020/12/25 06:08:17;;;;;;;6.60;4.85;;;5.30;99.90;;;;;;5070489;28;20263;-81
2020/12/25 06:10:44;;;;;;;6.88;4.78;;;5.30;99.90;;;;;;5068869;28;20983;-79
2020/12/25 06:13:14;;;;;;;6.65;4.50;;;5.40;99.90;;;;;;5058719;28;20241;-79
2020/12/25 06:15:46;;;;;;;6.15;4.70;;;5.40;99.90;;;;;;5066876;28;20206;-82
2020/12/25 06:18:27;;;;;;;8.00;5.43;;;5.30;99.90;;;;;;5069405;28;20217;-88
2020/12/25 06:20:58;;;;;;;8.77;4.43;;;5.40;99.90;;;;;;5069965;28;20275;-88
2020/12/25 06:23:26;;;;;;;6.97;4.57;;;5.30;99.90;;;;;;5060638;28;20233;-88
2020/12/25 06:25:53;;;;;;;7.50;5.10;;;5.10;99.90;;;;;;5076652;28;20216;-88
2020/12/25 06:28:20;;;;;;;8.07;5.80;;;5.20;99.90;;;;;;5071769;28;20194;-88
2020/12/25 06:30:47;;;;;;;8.95;5.47;;;5.20;99.90;;;;;;5061834;28;20210;-88
2020/12/25 06:33:15;;;;;;;7.07;5.30;;;5.20;99.90;;;;;;5069331;28;20213;-82
2020/12/25 06:35:45;;;;;;;7.38;5.00;;;5.10;99.90;;;;;;5084992;28;20210;-82
2020/12/25 06:38:13;;;;;;;8.90;6.03;;;4.90;99.90;;;;;;5075115;28;20357;-83
2020/12/25 06:40:41;;;;;;;7.78;5.38;;;5.20;99.90;;;;;;5069889;28;20842;-83
2020/12/25 06:43:16;;;;;;;7.75;5.90;;;5.00;99.90;;;;;;5082427;28;20233;-83
2020/12/25 06:45:43;;;;;;;8.77;6.03;;;5.20;99.90;;;;;;5076369;28;20235;-80
2020/12/25 06:48:14;;;;;;;7.95;5.25;;;5.30;99.90;;;;;;5073652;28;20466;-81
2020/12/25 06:50:43;;;;;;;7.40;5.20;;;5.20;99.90;;;;;;5078301;28;20202;-83
2020/12/25 06:53:10;;;;;;;8.65;5.43;;;5.10;99.90;;;;;;5078771;28;20858;-84
2020/12/25 06:55:43;;;;;;;7.57;5.60;;;5.00;99.90;;;;;;5074407;28;20202;-85
2020/12/25 06:58:11;;;;;;;8.05;5.72;;;5.00;99.90;;;;;;5084630;28;20232;-85
2020/12/25 07:00:40;;;;;;;7.07;4.75;;;5.10;99.90;;;;;;5079619;28;20678;-84
2020/12/25 07:03:11;;;;;;;8.13;5.65;;;5.10;99.90;;;;;;5074767;28;20211;-88
2020/12/25 07:05:47;;;;;;;6.70;5.03;;;5.10;99.90;;;;;;5064309;28;20206;-82
2020/12/25 07:08:27;;;;;;;7.20;5.43;;;5.10;99.90;;;;;;5067855;28;20205;-85
2020/12/25 07:11:06;;;;;;;7.35;4.72;;;5.20;99.90;;;;;;5082995;28;20198;-85
2020/12/25 07:13:33;;;;;;;5.82;4.40;;;5.00;99.90;;;;;;5081966;28;20294;-83
2020/12/25 07:16:00;;;;;;;6.60;4.50;;;5.10;99.90;;;;;;5065073;28;20199;-82
2020/12/25 07:18:27;;;;;;;6.32;4.13;;;5.00;99.90;;;;;;5081454;28;20198;-84
2020/12/25 07:20:57;;;;;;;6.18;4.20;;;5.10;99.90;;;;;;5084626;28;20217;-84
2020/12/25 07:23:24;;;;;;;6.30;4.05;;;5.20;99.90;;;;;;5080610;28;20218;-84
2020/12/25 07:25:52;;;;;;;5.60;3.35;;;4.90;99.90;;;;;;5063895;28;20222;-84
2020/12/25 07:28:23;;;;;;;6.10;4.03;;;5.20;99.90;;;;;;5080133;28;20232;-84
2020/12/25 07:30:51;;;;;;;5.80;3.95;;;5.00;99.90;;;;;;5083951;28;20202;-83
2020/12/25 07:33:17;;;;;;;5.47;3.58;;;5.00;99.90;;;;;;5067276;28;20310;-84
2020/12/25 07:35:44;;;;;;;5.40;3.60;;;5.00;99.90;;;;;;5064732;28;20221;-84
2020/12/25 07:38:13;;;;;;;6.18;3.72;;;4.90;99.90;;;;;;5063579;28;20207;-84
2020/12/25 07:40:41;;;;;;;5.70;3.78;;;5.00;99.90;;;;;;5063508;28;20233;-84
2020/12/25 07:43:08;;;;;;;4.90;3.22;;;5.00;99.90;;;;;;5063688;28;20234;-84
2020/12/25 07:45:35;;;;;;;5.43;3.55;;;4.90;99.90;;;;;;5063727;28;20203;-84
2020/12/25 07:48:03;;;;;;;6.10;3.67;;;5.00;99.90;;;;;;5065158;28;20581;-83
2020/12/25 07:50:34;;;;;;;4.97;3.30;;;4.80;99.90;;;;;;5073595;28;20225;-84
2020/12/25 07:53:01;;;;;;;5.80;3.95;;;4.80;99.90;;;;;;5064806;28;20294;-83
2020/12/25 07:55:30;;;;;;;5.72;4.10;;;4.90;99.90;;;;;;5087773;28;20311;-83
2020/12/25 07:57:59;;;;;;;5.50;3.78;;;4.80;99.90;;;;;;5068291;28;20222;-84
2020/12/25 08:00:26;;;;;;;6.05;3.95;;;4.90;99.90;;;;;;5067287;28;20222;-85
2020/12/25 08:02:54;;;;;;;5.90;4.00;;;5.10;99.90;;;;;;5065076;28;20726;-83
2020/12/25 08:05:21;;;;;;;6.22;4.15;;;4.90;99.90;;;;;;5064948;28;20205;-82
2020/12/25 08:07:48;;;;;;;6.88;4.00;;;4.90;99.90;;;;;;5065202;28;20285;-83
2020/12/25 08:10:17;;;;;;;7.95;4.05;;;4.70;99.90;;;;;;5063825;28;20229;-82
2020/12/25 08:12:49;;;;;;;4.90;3.30;;;4.90;99.90;;;;;;5064853;28;20930;-83
2020/12/25 08:15:16;;;;;;;5.70;4.35;;;5.00;99.90;;;;;;5064751;28;20199;-82
2020/12/25 08:17:47;;;;;;;9.20;4.70;;;4.80;99.90;;;;;;5069770;28;20201;-82
2020/12/25 08:20:14;;;;;;;6.22;4.25;;;5.00;99.90;;;;;;5084615;28;20222;-83
2020/12/25 08:22:40;;;;;;;6.35;4.43;;;4.80;99.90;;;;;;5081333;28;20201;-81
2020/12/25 08:25:07;;;;;;;7.80;4.70;;;4.90;99.90;;;;;;5074072;28;20210;-83
2020/12/25 08:27:35;;;;;;;6.63;5.03;;;4.80;99.90;;;;;;5067541;28;20213;-83
2020/12/25 08:30:05;;;;;;;6.75;4.13;;;4.90;99.90;;;;;;5069603;28;20261;-80
2020/12/25 08:32:32;;;;;;;8.43;5.45;;;4.90;99.90;;;;;;5076437;28;20211;-80
2020/12/25 08:35:15;;;;;;;8.20;5.60;;;4.80;99.90;;;;;;5071911;28;20234;-82
2020/12/25 08:37:55;;;;;;;8.88;5.55;;;5.10;99.90;;;;;;5069977;28;20205;-84
2020/12/25 08:40:22;;;;;;;9.35;6.45;;;4.90;99.90;;;;;;5062555;28;20230;-83
2020/12/25 08:42:49;;;;;;;8.38;5.93;;;5.10;99.90;;;;;;5071088;28;20218;-82
2020/12/25 08:45:21;;;;;;;10.95;6.95;;;5.00;99.90;;;;;;5082334;28;20216;-83
2020/12/25 08:48:11;;;;;;;10.10;7.50;;;4.80;99.90;;;;;;5066949;28;20210;-87
2020/12/25 08:50:39;;;;;;;12.70;7.10;;;5.00;99.90;;;;;;5083315;28;20302;-87
2020/12/25 08:53:20;;;;;;;11.85;8.57;;;5.10;99.90;;;;;;5082756;28;20229;-87
2020/12/25 08:55:51;;;;;;;12.30;6.88;;;5.00;99.90;;;;;;5083753;28;20206;-83
2020/12/25 08:58:22;;;;;;;11.50;6.03;;;5.30;99.90;;;;;;5071418;28;20229;-85
2020/12/25 09:00:58;;;;;;;16.13;8.38;;;5.20;99.90;;;;;;5061697;28;20289;-82
2020/12/25 09:03:24;;;;;;;13.38;8.25;;;5.20;99.90;;;;;;5059705;28;20230;-81
2020/12/25 09:06:01;;;;;;;13.95;8.63;;;5.10;99.90;;;;;;5067974;28;20202;-83
2020/12/25 09:08:27;;;;;;;14.07;7.88;;;5.30;99.90;;;;;;5076460;28;20210;-82
2020/12/25 09:10:54;;;;;;;10.95;7.53;;;5.40;99.90;;;;;;5068881;28;20231;-82
2020/12/25 09:13:20;;;;;;;13.77;8.55;;;5.50;99.90;;;;;;5081918;28;20228;-81
2020/12/25 09:15:47;;;;;;;13.93;8.10;;;5.40;99.90;;;;;;5065065;28;20211;-85
2020/12/25 09:18:15;;;;;;;10.90;7.60;;;5.50;99.90;;;;;;5063324;28;20206;-83
2020/12/25 09:20:41;;;;;;;13.18;8.95;;;5.50;99.90;;;;;;5069015;28;20225;-80
2020/12/25 09:23:08;;;;;;;12.98;6.68;;;5.50;99.90;;;;;;5067113;28;20248;-83
2020/12/25 09:25:34;;;;;;;12.70;7.88;;;5.60;99.90;;;;;;5063490;28;20222;-82
2020/12/25 09:28:01;;;;;;;11.73;8.35;;;5.40;99.90;;;;;;5081246;28;20228;-82
2020/12/25 09:30:28;;;;;;;11.27;7.63;;;5.60;99.90;;;;;;5073510;28;20893;-81
2020/12/25 09:32:54;;;;;;;10.57;6.60;;;5.70;99.90;;;;;;5078229;28;20719;-82
2020/12/25 09:35:22;;;;;;;10.60;6.00;;;5.60;99.90;;;;;;5064323;28;20216;-85
2020/12/25 09:37:48;;;;;;;12.20;7.05;;;5.70;99.90;;;;;;5070045;28;20202;-85
2020/12/25 09:40:15;;;;;;;11.80;7.43;;;5.40;99.90;;;;;;5070768;28;20285;-87
2020/12/25 09:42:42;;;;;;;12.48;7.20;;;5.30;99.90;;;;;;5066416;28;20233;-84
2020/12/25 09:45:12;;;;;;;11.43;3.58;;;5.50;99.90;;;;;;5083308;28;20647;-82
2020/12/25 09:47:38;;;;;;;10.60;7.03;;;5.50;99.90;;;;;;5081497;28;20210;-82
2020/12/25 09:50:05;;;;;;;8.85;5.00;;;5.40;99.90;;;;;;5072467;28;20229;-81
2020/12/25 09:52:34;;;;;;;9.55;5.72;;;5.50;99.90;;;;;;5062479;28;20206;-83
2020/12/25 09:55:00;;;;;;;8.02;4.40;;;5.40;99.90;;;;;;5062172;28;20206;-82
2020/12/25 09:57:27;;;;;;;7.35;3.45;;;5.30;99.90;;;;;;5060935;28;20210;-83
2020/12/25 09:59:55;;;;;;;11.57;6.05;;;5.10;99.90;;;;;;5078916;28;20664;-83
2020/12/25 10:02:21;;;;;;;11.32;6.53;;;5.10;99.90;;;;;;5079466;28;20351;-83
2020/12/25 10:04:48;;;;;;;6.63;3.75;;;5.00;99.90;;;;;;5068385;28;20206;-84
2020/12/25 10:07:15;;;;;;;9.82;5.72;;;5.30;99.90;;;;;;5061384;28;20262;-83
2020/12/25 10:09:42;;;;;;;9.70;5.35;;;5.20;99.90;;;;;;5060467;28;20618;-83
2020/12/25 10:12:08;;;;;;;7.57;3.80;;;5.40;99.90;;;;;;5066930;28;20217;-84
2020/12/25 10:14:36;;;;;;;6.45;4.07;;;5.40;99.90;;;;;;5071275;28;20234;-83
2020/12/25 10:17:02;;;;;;;6.55;3.80;;;5.30;99.90;;;;;;5066000;28;20656;-83
2020/12/25 10:19:29;;;;;;;11.40;6.20;;;5.40;99.90;;;;;;5079471;28;20239;-84
2020/12/25 10:21:55;;;;;;;6.95;4.30;;;5.40;99.90;;;;;;5059642;28;20203;-82
2020/12/25 10:24:22;;;;;;;7.75;4.55;;;5.50;99.90;;;;;;5060611;28;20248;-82
2020/12/25 10:26:49;;;;;;;10.88;6.55;;;5.20;99.90;;;;;;5062352;28;20592;-83
2020/12/25 10:29:16;;;;;;;7.25;3.95;;;5.40;99.90;;;;;;5067328;28;20190;-82
2020/12/25 10:31:47;;;;;;;6.88;3.85;;;5.30;99.90;;;;;;5078600;28;20217;-83
2020/12/25 10:34:14;;;;;;;7.93;3.80;;;5.40;99.90;;;;;;5071076;28;20226;-82
2020/12/25 10:36:40;;;;;;;8.52;4.13;;;5.40;99.90;;;;;;5058575;28;20685;-81
2020/12/25 10:39:07;;;;;;;7.60;5.07;;;5.20;99.90;;;;;;5065115;28;20201;-83
2020/12/25 10:41:34;;;;;;;8.68;5.28;;;5.40;99.90;;;;;;5074437;28;20252;-83
2020/12/25 10:44:02;;;;;;;13.43;3.58;;;5.50;99.90;;;;;;5062311;28;20218;-83
2020/12/25 10:46:28;;;;;;;8.15;4.93;;;5.20;99.90;;;;;;5064726;28;20214;-83
2020/12/25 10:48:55;;;;;;;8.27;4.97;;;5.30;99.90;;;;;;5062248;28;20656;-83
2020/12/25 10:51:22;;;;;;;8.77;4.78;;;5.50;99.90;;;;;;5091305;28;20211;-81
2020/12/25 10:53:49;;;;;;;8.02;4.60;;;5.50;99.90;;;;;;5086390;28;20234;-81
2020/12/25 10:56:22;;;;;;;9.18;5.03;;;5.40;99.90;;;;;;5080032;28;20269;-81
2020/12/25 10:58:49;;;;;;;7.38;4.20;;;5.30;99.90;;;;;;5086255;28;20259;-80
2020/12/25 11:01:24;;;;;;;8.65;5.55;;;5.50;99.90;;;;;;5074141;28;20294;-80
2020/12/25 11:03:51;;;;;;;8.18;5.20;;;5.50;99.90;;;;;;5074233;28;20427;-82
2020/12/25 11:06:19;;;;;;;10.07;6.82;;;5.50;99.90;;;;;;5060454;28;20206;-82
2020/12/25 11:08:47;;;;;;;8.65;5.80;;;5.30;99.90;;;;;;5059024;28;20397;-81
2020/12/25 11:11:14;;;;;;;7.55;5.20;;;5.30;99.90;;;;;;5060344;28;20228;-83
2020/12/25 11:13:42;;;;;;;8.07;4.40;;;5.40;99.90;;;;;;5076080;28;20232;-81
2020/12/25 11:16:19;;;;;;;8.65;5.10;;;5.20;99.90;;;;;;5064155;28;20202;-80
2020/12/25 11:18:47;;;;;;;9.23;5.38;;;5.30;99.90;;;;;;5059151;28;20202;-79
2020/12/25 11:21:19;;;;;;;4.47;2.35;;;5.40;99.90;;;;;;5060267;28;20313;-81
2020/12/25 11:23:45;;;;;;;7.40;4.68;;;5.10;99.90;;;;;;5059422;28;20236;-81
2020/12/25 11:26:19;;;;;;;7.18;4.35;;;5.30;99.90;;;;;;5060945;28;20210;-81
2020/12/25 11:28:46;;;;;;;9.55;4.38;;;5.10;99.90;;;;;;5062864;28;20609;-81
2020/12/25 11:31:12;;;;;;;10.68;5.45;;;4.90;99.90;;;;;;5063119;28;20203;-82
2020/12/25 11:33:39;;;;;;;6.97;4.85;;;5.20;99.90;;;;;;5061717;28;20610;-80
2020/12/25 11:36:07;;;;;;;7.53;4.40;;;5.00;99.90;;;;;;5061908;28;20207;-81
2020/12/25 11:38:33;;;;;;;6.22;4.07;;;5.10;99.90;;;;;;5062397;28;20260;-81
2020/12/25 11:41:00;;;;;;;5.80;3.47;;;5.30;99.90;;;;;;5061283;28;20243;-83
2020/12/25 11:43:26;;;;;;;10.18;5.22;;;5.20;99.90;;;;;;5059841;28;20256;-83
2020/12/25 11:45:53;;;;;;;8.55;3.65;;;5.20;99.90;;;;;;5061286;28;20213;-81
2020/12/25 11:48:19;;;;;;;5.78;3.17;;;5.00;99.90;;;;;;5062075;28;20769;-81
2020/12/25 11:50:46;;;;;;;9.57;5.00;;;4.80;99.90;;;;;;5061569;28;20206;-82
2020/12/25 11:53:13;;;;;;;6.95;4.60;;;5.20;99.90;;;;;;5061904;28;20233;-81
2020/12/25 11:55:40;;;;;;;7.95;4.65;;;5.00;99.90;;;;;;5063297;28;20213;-82
2020/12/25 11:58:07;;;;;;;7.15;4.05;;;5.20;99.90;;;;;;5061184;28;20252;-83
2020/12/25 12:00:33;;;;;;;8.05;4.32;;;5.40;99.90;;;;;;5062401;28;20222;-83
2020/12/25 12:03:00;;;;;;;6.65;4.18;;;5.30;99.90;;;;;;5072663;28;20218;-81
2020/12/25 12:05:26;;;;;;;8.05;4.28;;;5.60;99.90;;;;;;5062475;28;20716;-79
2020/12/25 12:07:53;;;;;;;6.90;3.40;;;5.10;99.90;;;;;;5061537;28;20274;-84
2020/12/25 12:10:21;;;;;;;9.55;6.32;;;5.20;99.90;;;;;;5086154;28;20201;-81
2020/12/25 12:12:47;;;;;;;6.65;3.83;;;5.50;99.90;;;;;;5072888;28;20226;-81
2020/12/25 12:15:14;;;;;;;6.65;3.85;;;5.20;99.90;;;;;;5078601;28;20251;-80
2020/12/25 12:17:40;;;;;;;3.92;1.90;;;5.40;99.90;;;;;;5078246;28;20205;-82
2020/12/25 12:20:07;;;;;;;7.18;4.47;;;5.20;99.90;;;;;;5090256;28;20222;-83
2020/12/25 12:22:33;;;;;;;8.13;4.38;;;5.20;99.90;;;;;;5080991;28;20208;-82
2020/12/25 12:25:04;;;;;;;10.05;4.70;;;5.20;99.90;;;;;;5070919;28;20206;-82
2020/12/25 12:27:31;;;;;;;5.82;3.50;;;5.40;99.90;;;;;;5080953;28;20194;-82
2020/12/25 12:29:58;;;;;;;6.13;3.50;;;5.30;99.90;;;;;;5086038;28;20266;-81
2020/12/25 12:32:25;;;;;;;11.95;3.88;;;5.20;99.90;;;;;;5071130;28;20198;-81
2020/12/25 12:34:51;;;;;;;5.18;2.08;;;5.30;99.90;;;;;;5065434;28;20659;-83
2020/12/25 12:37:18;;;;;;;7.13;3.88;;;5.10;99.90;;;;;;5069475;28;20224;-83
2020/12/25 12:39:44;;;;;;;7.72;3.92;;;5.00;99.90;;;;;;5066539;28;20302;-82
2020/12/25 12:42:11;;;;;;;6.45;4.07;;;5.00;99.90;;;;;;5073503;28;20202;-86
2020/12/25 12:44:39;;;;;;;7.55;3.75;;;5.10;99.90;;;;;;5081537;28;20229;-85
2020/12/25 12:47:05;;;;;;;6.93;3.70;;;5.00;99.90;;;;;;5076358;28;20213;-87
2020/12/25 12:49:32;;;;;;;4.05;2.00;;;5.10;99.90;;;;;;5074966;28;20202;-84
2020/12/25 12:51:58;;;;;;;6.05;3.55;;;5.00;99.90;;;;;;5092567;28;20206;-85
2020/12/25 12:54:25;;;;;;;6.13;2.10;;;5.10;99.90;;;;;;5090595;28;20229;-86
2020/12/25 12:56:52;;;;;;;3.67;1.90;;;5.10;99.90;;;;;;5084072;28;20203;-81
2020/12/25 12:59:18;;;;;;;6.70;4.05;;;4.90;99.90;;;;;;5067487;28;20217;-81